createdAt,value
2018-02-16T00:01:40.354Z,23.08
2018-02-16T00:04:07.850Z,22.40
2018-02-16T00:06:35.344Z,23.10
2018-02-16T00:09:03.609Z,22.37
2018-02-16T00:11:31.124Z,22.55
2018-02-16T00:13:58.627Z,22.87
2018-02-16T00:16:26.129Z,23.45
2018-02-16T00:18:53.624Z,23.15
2018-02-16T00:21:21.122Z,23.95
2018-02-16T00:23:49.395Z,23.80
2018-02-16T00:26:17.655Z,23.45
2018-02-16T00:28:45.950Z,24.58
2018-02-16T00:31:14.226Z,23.23
2018-02-16T00:33:42.501Z,22.15
2018-02-16T00:36:10.768Z,21.42
2018-02-16T00:38:39.039Z,23.60
2018-02-16T00:41:06.538Z,23.08
2018-02-16T00:43:34.032Z,23.62
2018-02-16T00:46:01.555Z,24.15
2018-02-16T00:48:29.050Z,21.55
2018-02-16T00:50:56.546Z,23.33
2018-02-16T00:53:24.807Z,23.23
2018-02-16T00:55:52.319Z,22.10
2018-02-16T00:58:19.834Z,22.75
2018-02-16T01:00:48.102Z,22.35
2018-02-16T01:03:16.383Z,22.50
2018-02-16T01:05:44.638Z,20.37
2018-02-16T01:08:12.254Z,23.17
2018-02-16T01:10:39.758Z,22.25
2018-02-16T01:13:07.271Z,22.30
2018-02-16T01:15:34.803Z,21.55
2018-02-16T01:18:03.082Z,21.77
2018-02-16T01:20:31.343Z,22.20
2018-02-16T01:22:58.835Z,22.25
2018-02-16T01:25:26.338Z,23.42
2018-02-16T01:27:53.832Z,22.08
2018-02-16T01:30:22.091Z,21.98
2018-02-16T01:32:49.615Z,22.75
2018-02-16T01:35:17.119Z,22.42
2018-02-16T01:37:45.375Z,23.17
2018-02-16T01:40:12.881Z,24.50
2018-02-16T01:42:40.370Z,22.77
2018-02-16T01:45:07.874Z,23.83
2018-02-16T01:47:36.131Z,25.58
2018-02-16T01:50:06.199Z,23.30
2018-02-16T01:52:33.711Z,27.20
2018-02-16T01:55:01.207Z,25.30
2018-02-16T01:57:28.710Z,23.70
2018-02-16T01:59:56.225Z,25.27
2018-02-16T02:02:23.722Z,24.50
2018-02-16T02:04:51.224Z,24.63
2018-02-16T02:07:19.487Z,23.02
2018-02-16T02:09:47.763Z,23.62
2018-02-16T02:12:16.022Z,25.73
2018-02-16T02:14:43.528Z,25.15
2018-02-16T02:17:11.018Z,26.25
2018-02-16T02:19:38.524Z,25.92
2018-02-16T02:22:06.796Z,24.65
2018-02-16T02:24:35.055Z,24.35
2018-02-16T02:27:03.331Z,25.23
2018-02-16T02:29:31.594Z,25.95
2018-02-16T02:31:59.103Z,27.13
2018-02-16T02:34:26.610Z,24.70
2018-02-16T02:36:54.105Z,27.00
2018-02-16T02:39:22.362Z,26.50
2018-02-16T02:41:49.857Z,25.15
2018-02-16T02:44:17.361Z,27.37
2018-02-16T02:46:44.894Z,27.67
2018-02-16T02:49:12.391Z,27.42
2018-02-16T02:51:39.899Z,26.00
2018-02-16T02:54:07.394Z,27.52
2018-02-16T02:56:34.906Z,27.25
2018-02-16T02:59:02.440Z,28.35
2018-02-16T03:01:30.714Z,26.95
2018-02-16T03:03:58.981Z,30.95
2018-02-16T03:06:32.282Z,27.67
2018-02-16T03:09:00.550Z,25.62
2018-02-16T03:11:28.047Z,26.42
2018-02-16T03:13:55.574Z,26.85
2018-02-16T03:16:23.832Z,28.70
2018-02-16T03:18:51.336Z,26.80
2018-02-16T03:21:18.847Z,28.17
2018-02-16T03:23:46.350Z,28.20
2018-02-16T03:26:13.851Z,30.33
2018-02-16T03:28:41.477Z,30.95
2018-02-16T03:31:08.971Z,27.00
2018-02-16T03:33:36.470Z,29.45
2018-02-16T03:36:04.747Z,29.50
2018-02-16T03:38:33.015Z,28.70
2018-02-16T03:41:01.279Z,31.02
2018-02-16T03:43:28.790Z,31.55
2018-02-16T03:45:56.290Z,30.23
2018-02-16T03:48:23.877Z,28.35
2018-02-16T03:50:52.135Z,27.25
2018-02-16T03:53:19.735Z,29.85
2018-02-16T03:55:47.250Z,26.15
2018-02-16T03:58:14.747Z,28.65
2018-02-16T04:00:42.255Z,28.65
2018-02-16T04:03:09.772Z,29.10
2018-02-16T04:05:37.286Z,28.98
2018-02-16T04:08:04.779Z,31.87
2018-02-16T04:10:32.270Z,26.58
2018-02-16T04:12:59.778Z,28.27
2018-02-16T04:15:28.040Z,28.85
2018-02-16T04:17:56.310Z,28.85
2018-02-16T04:20:23.824Z,30.00
2018-02-16T04:22:51.322Z,30.10
2018-02-16T04:25:18.834Z,28.70
2018-02-16T04:27:46.370Z,30.12
2018-02-16T04:30:13.875Z,28.85
2018-02-16T04:32:41.378Z,30.17
2018-02-16T04:35:09.639Z,32.22
2018-02-16T04:37:37.622Z,29.85
2018-02-16T04:40:05.885Z,28.73
2018-02-16T04:42:34.159Z,29.60
2018-02-16T04:45:02.425Z,30.20
2018-02-16T04:47:29.936Z,31.05
2018-02-16T04:49:57.431Z,27.50
2018-02-16T04:52:24.922Z,30.88
2018-02-16T04:54:53.183Z,30.62
2018-02-16T04:57:20.694Z,28.50
2018-02-16T04:59:48.190Z,30.33
2018-02-16T05:02:15.690Z,28.08
2018-02-16T05:04:43.186Z,31.33
2018-02-16T05:07:10.684Z,32.55
2018-02-16T05:09:38.942Z,32.92
2018-02-16T05:12:06.436Z,30.33
2018-02-16T05:14:33.938Z,30.90
2018-02-16T05:17:01.431Z,31.92
2018-02-16T05:19:29.698Z,31.33
2018-02-16T05:21:57.202Z,30.20
2018-02-16T05:24:24.694Z,30.17
2018-02-16T05:26:52.203Z,31.35
2018-02-16T05:29:19.694Z,32.25
2018-02-16T05:31:47.193Z,29.37
2018-02-16T05:34:14.681Z,30.92
2018-02-16T05:36:42.174Z,30.08
2018-02-16T05:39:09.670Z,32.55
2018-02-16T05:41:37.987Z,34.00
2018-02-16T05:44:05.496Z,33.33
2018-02-16T05:46:33.772Z,31.27
2018-02-16T05:49:01.271Z,35.33
2018-02-16T05:51:28.806Z,34.08
2018-02-16T05:53:57.192Z,32.30
2018-02-16T05:56:25.459Z,34.78
2018-02-16T05:58:53.730Z,33.15
2018-02-16T06:01:21.999Z,33.28
2018-02-16T06:03:49.506Z,32.58
2018-02-16T06:06:17.003Z,34.05
2018-02-16T06:08:44.524Z,32.38
2018-02-16T06:11:12.030Z,31.48
2018-02-16T06:13:39.523Z,31.50
2018-02-16T06:16:07.038Z,31.25
2018-02-16T06:18:34.530Z,32.10
2018-02-16T06:21:02.815Z,30.12
2018-02-16T06:23:30.388Z,31.42
2018-02-16T06:25:57.902Z,29.17
2018-02-16T06:28:25.395Z,28.75
2018-02-16T06:30:53.835Z,28.55
2018-02-16T06:33:21.343Z,28.98
2018-02-16T06:35:48.839Z,27.77
2018-02-16T06:38:16.331Z,27.83
2018-02-16T06:40:44.606Z,29.05
2018-02-16T06:43:12.871Z,28.73
2018-02-16T06:45:40.365Z,29.75
2018-02-16T06:48:07.869Z,29.48
2018-02-16T06:50:35.477Z,30.45
2018-02-16T06:53:02.983Z,31.70
2018-02-16T06:55:30.494Z,30.80
2018-02-16T06:57:57.999Z,29.50
2018-02-16T07:00:25.490Z,27.67
2018-02-16T07:02:53.758Z,27.77
2018-02-16T07:05:22.018Z,31.15
2018-02-16T07:07:49.511Z,30.17
2018-02-16T07:10:17.766Z,30.70
2018-02-16T07:12:46.039Z,29.63
2018-02-16T07:15:13.539Z,30.17
2018-02-16T07:17:41.047Z,30.65
2018-02-16T07:20:08.541Z,32.33
2018-02-16T07:22:36.047Z,31.92
2018-02-16T07:25:03.558Z,33.13
2018-02-16T07:27:31.067Z,30.30
2018-02-16T07:29:58.563Z,30.90
2018-02-16T07:32:26.823Z,28.27
2018-02-16T07:34:54.314Z,32.90
2018-02-16T07:37:21.812Z,32.55
2018-02-16T07:39:49.307Z,31.73
2018-02-16T07:42:17.575Z,30.85
2018-02-16T07:44:45.097Z,32.63
2018-02-16T07:47:12.590Z,33.45
2018-02-16T07:49:40.150Z,30.55
2018-02-16T07:52:07.623Z,31.60
2018-02-16T07:54:35.907Z,33.05
2018-02-16T07:57:04.184Z,30.02
2018-02-16T07:59:32.438Z,31.90
2018-02-16T08:02:00.718Z,31.75
2018-02-16T08:04:28.986Z,31.30
2018-02-16T08:06:56.491Z,32.70
2018-02-16T08:09:23.982Z,31.20
2018-02-16T08:11:51.483Z,32.90
2018-02-16T08:14:19.755Z,31.40
2018-02-16T08:16:48.060Z,31.30
2018-02-16T08:19:15.562Z,32.33
2018-02-16T08:21:43.067Z,31.65
2018-02-16T08:24:10.559Z,35.20
2018-02-16T08:26:38.058Z,34.03
2018-02-16T08:29:06.335Z,37.35
2018-02-16T08:31:34.610Z,34.83
2018-02-16T08:34:02.881Z,44.97
2018-02-16T08:36:31.155Z,44.03
2018-02-16T08:38:59.434Z,34.85
2018-02-16T08:41:27.704Z,33.17
2018-02-16T08:43:55.195Z,33.95
2018-02-16T08:46:22.691Z,34.42
2018-02-16T08:48:50.207Z,33.70
2018-02-16T08:51:17.715Z,32.83
2018-02-16T08:53:45.202Z,33.25
2018-02-16T08:56:13.467Z,34.58
2018-02-16T08:58:41.794Z,32.17
2018-02-16T09:01:09.505Z,32.60
2018-02-16T09:03:37.771Z,33.17
2018-02-16T09:06:05.267Z,34.85
2018-02-16T09:08:33.546Z,32.72
2018-02-16T09:11:01.808Z,33.35
2018-02-16T09:13:30.082Z,34.53
2018-02-16T09:15:58.351Z,33.25
2018-02-16T09:18:25.857Z,33.17
2018-02-16T09:20:53.360Z,34.95
2018-02-16T09:23:21.626Z,35.28
2018-02-16T09:25:49.127Z,33.80
2018-02-16T09:28:17.391Z,33.75
2018-02-16T09:30:45.667Z,34.33
2018-02-16T09:33:13.935Z,34.33
2018-02-16T09:35:43.274Z,34.30
2018-02-16T09:38:10.772Z,33.67
2018-02-16T09:40:38.267Z,35.65
2018-02-16T09:43:06.542Z,37.28
2018-02-16T09:45:34.845Z,37.28
2018-02-16T09:48:02.352Z,34.53
2018-02-16T09:50:29.850Z,35.95
2018-02-16T09:52:57.347Z,33.90
2018-02-16T09:55:24.879Z,37.35
2018-02-16T09:57:52.374Z,36.92
2018-02-16T10:00:19.875Z,35.92
2018-02-16T10:02:48.138Z,36.17
2018-02-16T10:05:16.416Z,37.92
2018-02-16T10:07:44.671Z,34.42
2018-02-16T10:10:12.169Z,37.30
2018-02-16T10:12:39.678Z,33.17
2018-02-16T10:15:07.174Z,35.08
2018-02-16T10:17:35.454Z,37.35
2018-02-16T10:20:03.731Z,34.35
2018-02-16T10:22:31.988Z,34.47
2018-02-16T10:25:00.247Z,37.65
2018-02-16T10:27:27.746Z,35.83
2018-02-16T10:29:55.256Z,37.67
2018-02-16T10:32:22.782Z,37.05
2018-02-16T10:34:50.279Z,37.67
2018-02-16T10:37:17.770Z,36.88
2018-02-16T10:39:46.035Z,37.40
2018-02-16T10:42:14.295Z,40.63
2018-02-16T10:44:41.791Z,38.92
2018-02-16T10:47:09.312Z,39.28
2018-02-16T10:49:36.820Z,36.78
2018-02-16T10:52:04.335Z,31.45
2018-02-16T10:54:31.835Z,29.20
2018-02-16T10:56:59.331Z,28.35
2018-02-16T10:59:26.822Z,25.58
2018-02-16T11:02:00.788Z,27.13
2018-02-16T11:04:33.885Z,26.02
2018-02-16T11:07:07.079Z,28.33
2018-02-16T11:09:34.588Z,26.40
2018-02-16T11:12:02.090Z,26.48
2018-02-16T11:14:29.598Z,26.10
2018-02-16T11:16:57.102Z,27.35
2018-02-16T11:19:24.606Z,27.25
2018-02-16T11:21:52.886Z,26.37
2018-02-16T11:24:21.147Z,28.33
2018-02-16T11:26:48.639Z,27.50
2018-02-16T11:29:16.135Z,25.88
2018-02-16T11:31:43.650Z,25.02
2018-02-16T11:34:11.177Z,24.00
2018-02-16T11:36:38.680Z,26.48
2018-02-16T11:39:06.179Z,25.98
2018-02-16T11:41:33.703Z,29.17
2018-02-16T11:44:01.195Z,25.50
2018-02-16T11:46:28.695Z,25.67
2018-02-16T11:48:56.946Z,25.67
2018-02-16T11:51:24.461Z,26.00
2018-02-16T11:53:51.947Z,26.35
2018-02-16T11:56:20.219Z,26.52
2018-02-16T11:58:47.731Z,27.05
2018-02-16T12:01:15.226Z,25.25
2018-02-16T12:03:42.740Z,25.52
2018-02-16T12:06:10.227Z,24.50
2018-02-16T12:08:37.743Z,26.17
2018-02-16T12:11:06.019Z,26.48
2018-02-16T12:13:34.279Z,25.65
2018-02-16T12:16:01.791Z,26.77
2018-02-16T12:18:29.293Z,24.87
2018-02-16T12:20:56.807Z,27.90
2018-02-16T12:23:24.313Z,27.60
2018-02-16T12:25:51.804Z,26.65
2018-02-16T12:28:19.300Z,27.05
2018-02-16T12:30:46.830Z,25.92
2018-02-16T12:33:14.326Z,24.30
2018-02-16T12:35:41.818Z,24.73
2018-02-16T12:38:10.086Z,26.00
2018-02-16T12:40:38.344Z,26.30
2018-02-16T12:43:05.844Z,25.85
2018-02-16T12:45:33.354Z,22.00
2018-02-16T12:48:00.870Z,26.98
2018-02-16T12:50:28.362Z,55.25
2018-02-16T12:52:55.868Z,29.15
2018-02-16T12:55:24.127Z,24.08
2018-02-16T12:57:52.387Z,22.65
2018-02-16T13:00:19.879Z,22.87
2018-02-16T13:02:48.151Z,22.50
2018-02-16T13:05:15.675Z,21.10
2018-02-16T13:07:43.164Z,22.00
2018-02-16T13:10:11.422Z,23.10
2018-02-16T13:12:38.926Z,21.62
2018-02-16T13:15:06.485Z,21.20
2018-02-16T13:17:33.980Z,21.10
2018-02-16T13:20:01.471Z,23.12
2018-02-16T13:22:29.741Z,21.87
2018-02-16T13:24:58.052Z,22.65
2018-02-16T13:27:25.551Z,21.20
2018-02-16T13:29:53.048Z,20.62
2018-02-16T13:32:21.306Z,21.40
2018-02-16T13:34:48.803Z,22.20
2018-02-16T13:37:16.306Z,23.17
2018-02-16T13:39:43.818Z,23.70
2018-02-16T13:42:11.381Z,23.12
2018-02-16T13:44:38.882Z,22.92
2018-02-16T13:47:06.402Z,22.75
2018-02-16T13:49:33.911Z,22.00
2018-02-16T13:52:01.414Z,22.85
2018-02-16T13:54:28.923Z,22.13
2018-02-16T13:56:56.431Z,23.60
2018-02-16T13:59:23.926Z,23.98
2018-02-16T14:01:51.420Z,22.10
2018-02-16T14:04:19.691Z,22.00
2018-02-16T14:06:47.958Z,23.27
2018-02-16T14:09:16.250Z,22.30
2018-02-16T14:11:44.531Z,24.35
2018-02-16T14:14:12.803Z,22.92
2018-02-16T14:16:41.062Z,21.12
2018-02-16T14:19:08.576Z,21.02
2018-02-16T14:21:36.071Z,19.85
2018-02-16T14:24:03.566Z,18.90
2018-02-16T14:26:31.082Z,18.80
2018-02-16T14:28:58.578Z,19.87
2018-02-16T14:31:26.078Z,20.15
2018-02-16T14:33:53.574Z,20.92
2018-02-16T14:36:21.854Z,21.20
2018-02-16T14:38:50.271Z,19.73
2018-02-16T14:41:17.827Z,19.62
2018-02-16T14:43:45.335Z,20.62
2018-02-16T14:46:12.852Z,23.17
2018-02-16T14:48:40.348Z,22.10
2018-02-16T14:51:07.847Z,21.37
2018-02-16T14:53:35.354Z,20.83
2018-02-16T14:56:02.878Z,22.15
2018-02-16T14:58:30.374Z,19.48
2018-02-16T15:00:57.896Z,20.45
2018-02-16T15:03:25.413Z,22.25
2018-02-16T15:05:53.729Z,22.35
2018-02-16T15:08:21.222Z,20.23
2018-02-16T15:10:48.721Z,19.45
2018-02-16T15:13:16.983Z,20.98
2018-02-16T15:15:45.255Z,19.60
2018-02-16T15:18:12.753Z,19.15
2018-02-16T15:20:40.254Z,17.30
2018-02-16T15:23:07.768Z,18.65
2018-02-16T15:25:35.265Z,18.60
2018-02-16T15:28:02.759Z,19.50
2018-02-16T15:30:31.032Z,20.10
2018-02-16T15:32:59.312Z,19.80
2018-02-16T15:35:27.566Z,18.85
2018-02-16T15:37:55.063Z,19.15
2018-02-16T15:40:22.574Z,19.75
2018-02-16T15:42:50.092Z,20.40
2018-02-16T15:45:17.603Z,18.98
2018-02-16T15:47:45.091Z,18.70
2018-02-16T15:50:12.593Z,18.90
2018-02-16T15:52:40.086Z,18.73
2018-02-16T15:55:08.346Z,17.92
2018-02-16T15:57:35.971Z,19.17
2018-02-16T16:00:03.484Z,19.02
2018-02-16T16:02:31.747Z,19.37
2018-02-16T16:05:00.028Z,18.00
2018-02-16T16:07:28.313Z,23.25
2018-02-16T16:09:56.571Z,21.75
2018-02-16T16:12:24.090Z,19.87
2018-02-16T16:14:51.598Z,21.12
2018-02-16T16:17:19.859Z,19.58
2018-02-16T16:19:47.358Z,19.50
2018-02-16T16:22:14.869Z,20.12
2018-02-16T16:24:42.371Z,22.85
2018-02-16T16:27:10.638Z,21.48
2018-02-16T16:29:38.921Z,21.55
2018-02-16T16:32:07.187Z,20.23
2018-02-16T16:34:35.458Z,20.70
2018-02-16T16:37:03.747Z,19.90
2018-02-16T16:39:32.018Z,21.05
2018-02-16T16:42:00.290Z,25.70
2018-02-16T16:44:28.566Z,21.77
2018-02-16T16:46:56.878Z,22.30
2018-02-16T16:49:24.390Z,21.83
2018-02-16T16:51:51.906Z,19.85
2018-02-16T16:54:19.419Z,20.58
2018-02-16T16:56:47.702Z,24.70
2018-02-16T16:59:15.967Z,26.33
2018-02-16T17:01:44.232Z,29.10
2018-02-16T17:04:11.730Z,25.02
2018-02-16T17:06:39.222Z,25.80
2018-02-16T17:09:06.727Z,22.00
2018-02-16T17:11:34.998Z,24.90
2018-02-16T17:14:03.259Z,36.75
2018-02-16T17:16:30.774Z,37.38
2018-02-16T17:18:58.289Z,36.97
2018-02-16T17:21:26.570Z,31.80
2018-02-16T17:23:55.050Z,30.90
2018-02-16T17:26:23.362Z,28.48
2018-02-16T17:28:50.863Z,27.73
2018-02-16T17:31:18.371Z,28.83
2018-02-16T17:33:45.867Z,29.27
2018-02-16T17:36:13.392Z,28.30
2018-02-16T17:38:40.896Z,24.40
2018-02-16T17:41:08.634Z,24.73
2018-02-16T17:43:36.167Z,26.33
2018-02-16T17:46:03.662Z,24.23
2018-02-16T17:48:31.167Z,25.45
2018-02-16T17:50:59.505Z,26.40
2018-02-16T17:53:26.995Z,27.80
2018-02-16T17:55:55.496Z,80.30
2018-02-16T17:58:23.011Z,47.47
2018-02-16T18:00:50.515Z,38.33
2018-02-16T18:03:18.034Z,37.47
2018-02-16T18:05:45.540Z,37.55
2018-02-16T18:08:13.067Z,45.25
2018-02-16T18:10:41.351Z,43.92
2018-02-16T18:13:09.622Z,53.97
2018-02-16T18:15:37.898Z,38.13
2018-02-16T18:18:06.154Z,34.55
2018-02-16T18:20:33.647Z,29.83
2018-02-16T18:23:01.222Z,29.95
2018-02-16T18:25:28.715Z,31.05
2018-02-16T18:27:56.225Z,34.30
2018-02-16T18:30:23.799Z,30.20
2018-02-16T18:32:51.291Z,31.20
2018-02-16T18:35:18.794Z,30.25
2018-02-16T18:37:46.307Z,33.53
2018-02-16T18:40:13.806Z,32.03
2018-02-16T18:42:42.088Z,32.45
2018-02-16T18:45:09.587Z,31.90
2018-02-16T18:47:37.102Z,28.35
2018-02-16T18:50:05.371Z,28.27
2018-02-16T18:52:33.646Z,26.35
2018-02-16T18:55:01.923Z,26.08
2018-02-16T18:57:30.210Z,25.80
2018-02-16T18:59:58.471Z,24.67
2018-02-16T19:02:26.742Z,25.25
2018-02-16T19:04:54.275Z,24.35
2018-02-16T19:07:21.782Z,39.10
2018-02-16T19:09:49.286Z,32.05
2018-02-16T19:12:16.795Z,26.37
2018-02-16T19:14:45.058Z,25.98
2018-02-16T19:17:13.318Z,25.25
2018-02-16T19:19:40.813Z,28.30
2018-02-16T19:22:08.311Z,46.67
2018-02-16T19:24:35.832Z,46.20
2018-02-16T19:27:03.326Z,50.95
2018-02-16T19:29:30.822Z,52.70
2018-02-16T19:31:59.098Z,57.20
2018-02-16T19:34:27.363Z,53.35
2018-02-16T19:36:54.871Z,50.53
2018-02-16T19:39:22.367Z,36.97
2018-02-16T19:41:49.863Z,33.78
2018-02-16T19:44:18.138Z,29.37
2018-02-16T19:46:46.418Z,27.40
2018-02-16T19:49:14.687Z,28.73
2018-02-16T19:51:42.978Z,27.13
2018-02-16T19:54:10.551Z,25.35
2018-02-16T19:56:38.067Z,26.15
2018-02-16T19:59:05.569Z,27.20
2018-02-16T20:01:33.087Z,26.15
2018-02-16T20:04:00.579Z,26.02
2018-02-16T20:06:28.075Z,25.17
2018-02-16T20:08:55.570Z,32.70
2018-02-16T20:11:23.850Z,36.65
2018-02-16T20:13:52.114Z,32.85
2018-02-16T20:16:19.627Z,30.37
2018-02-16T20:18:47.122Z,28.90
2018-02-16T20:21:14.616Z,29.48
2018-02-16T20:23:42.115Z,30.88
2018-02-16T20:26:09.626Z,29.45
2018-02-16T20:28:37.142Z,28.30
2018-02-16T20:31:04.635Z,25.30
2018-02-16T20:33:32.907Z,24.05
2018-02-16T20:36:01.178Z,25.20
2018-02-16T20:38:29.458Z,26.92
2018-02-16T20:40:58.003Z,25.92
2018-02-16T20:43:25.503Z,26.35
2018-02-16T20:45:53.779Z,25.17
2018-02-16T20:48:22.043Z,25.92
2018-02-16T20:50:50.310Z,28.35
2018-02-16T20:53:17.803Z,29.37
2018-02-16T20:55:45.295Z,27.42
2018-02-16T20:58:12.834Z,27.25
2018-02-16T21:00:40.323Z,27.30
2018-02-16T21:03:07.835Z,26.08
2018-02-16T21:05:35.334Z,27.05
2018-02-16T21:08:02.931Z,28.20
2018-02-16T21:10:31.211Z,27.50
2018-02-16T21:12:59.489Z,29.10
2018-02-16T21:15:27.783Z,26.48
2018-02-16T21:17:55.291Z,26.58
2018-02-16T21:20:22.795Z,27.73
2018-02-16T21:22:51.075Z,29.45
2018-02-16T21:25:18.575Z,29.00
2018-02-16T21:27:46.091Z,29.42
2018-02-16T21:30:13.587Z,30.15
2018-02-16T21:32:41.098Z,34.10
2018-02-16T21:35:09.351Z,35.75
2018-02-16T21:37:36.852Z,33.80
2018-02-16T21:40:04.367Z,36.03
2018-02-16T21:42:31.883Z,34.80
2018-02-16T21:44:59.406Z,33.75
2018-02-16T21:47:27.679Z,34.05
2018-02-16T21:49:55.958Z,33.67
2018-02-16T21:52:24.220Z,33.75
2018-02-16T21:54:51.730Z,33.42
2018-02-16T21:57:19.251Z,35.08
2018-02-16T21:59:47.514Z,36.08
2018-02-16T22:02:15.036Z,35.45
2018-02-16T22:04:42.530Z,34.70
2018-02-16T22:07:10.039Z,35.17
2018-02-16T22:09:37.555Z,35.50
2018-02-16T22:12:05.813Z,35.60
2018-02-16T22:14:33.321Z,35.13
2018-02-16T22:17:00.823Z,33.67
2018-02-16T22:19:28.323Z,36.20
2018-02-16T22:21:55.816Z,37.33
2018-02-16T22:24:23.322Z,36.25
2018-02-16T22:26:51.587Z,35.28
2018-02-16T22:29:19.093Z,35.63
2018-02-16T22:31:46.627Z,36.25
2018-02-16T22:34:14.903Z,39.50
2018-02-16T22:36:43.165Z,40.67
2018-02-16T22:39:11.434Z,36.80
2018-02-16T22:41:38.934Z,40.40
2018-02-16T22:44:06.435Z,41.63
2018-02-16T22:46:33.947Z,42.08
2018-02-16T22:49:01.482Z,42.20
2018-02-16T22:51:29.755Z,40.65
2018-02-16T22:53:58.327Z,42.60
2018-02-16T22:56:25.842Z,42.17
2018-02-16T22:58:53.342Z,43.60
2018-02-16T23:01:20.841Z,42.70
2018-02-16T23:03:48.344Z,42.20
2018-02-16T23:06:15.851Z,44.90
2018-02-16T23:08:43.375Z,44.55
2018-02-16T23:11:11.617Z,44.95
2018-02-16T23:13:39.119Z,42.78
2018-02-16T23:16:07.378Z,45.72
2018-02-16T23:18:34.899Z,42.92
2018-02-16T23:21:02.403Z,42.65
2018-02-16T23:23:29.916Z,43.13
2018-02-16T23:25:57.422Z,44.50
2018-02-16T23:28:24.921Z,43.85
2018-02-16T23:30:52.482Z,46.90
2018-02-16T23:33:19.978Z,45.47
2018-02-16T23:35:47.475Z,43.67
2018-02-16T23:38:15.730Z,43.03
2018-02-16T23:40:43.223Z,44.85
2018-02-16T23:43:10.688Z,47.75
2018-02-16T23:45:38.956Z,47.03
2018-02-16T23:48:06.455Z,46.40
2018-02-16T23:50:33.959Z,46.40
2018-02-16T23:53:01.456Z,43.95
2018-02-16T23:55:29.722Z,42.53
2018-02-16T23:57:57.259Z,42.33
